Time;durP1;ratioP1;P1;durP2;ratioP2;P2;SDS_P1;SDS_P2;PMS_P1;PMS_P2;Temp;Humidity;BMP_temperature;BMP_pressure;BME280_temperature;BME280_humidity;BME280_pressure;Samples;Min_cycle;Max_cycle;Signal;HPM_P1;HPM_P2
2022/11/03 00:01:38;;;;;;;;;;;10.80;99.90;;;;;;5090828;28;209128;-71
2022/11/03 00:04:05;;;;;;;;;;;10.90;99.90;;;;;;5035320;28;31087;-72
2022/11/03 00:06:31;;;;;;;;;;;10.80;99.90;;;;;;5087381;27;19923;-71
2022/11/03 00:08:58;;;;;;;;;;;10.80;99.90;;;;;;5075564;27;130672;-71
2022/11/03 00:11:24;;;;;;;;;;;10.80;99.90;;;;;;5103320;27;19930;-70
2022/11/03 00:13:50;;;;;;;;;;;10.80;99.90;;;;;;5053413;28;208831;-70
2022/11/03 00:16:16;;;;;;;;;;;10.80;99.90;;;;;;5107255;28;19942;-70
2022/11/03 00:18:42;;;;;;;;;;;10.90;99.90;;;;;;5022064;27;185609;-70
2022/11/03 00:21:09;;;;;;;;;;;10.90;99.90;;;;;;5078972;28;20380;-70
2022/11/03 00:23:36;;;;;;;;;;;10.90;99.90;;;;;;5030974;27;207901;-71
2022/11/03 00:26:08;;;;;;;;;;;10.80;99.90;;;;;;5106206;27;19938;-71
2022/11/03 00:28:34;;;;;;;;;;;10.90;99.90;;;;;;5057509;27;59944;-70
2022/11/03 00:31:01;;;;;;;;;;;10.80;99.90;;;;;;5104777;27;19924;-71
2022/11/03 00:33:30;;;;;;;;;;;10.80;99.90;;;;;;5051471;27;211738;-70
2022/11/03 00:35:57;;;;;;;;;;;10.80;99.90;;;;;;5106419;27;19935;-71
2022/11/03 00:38:23;;;;;;;;;;;10.80;99.90;;;;;;5057591;27;207832;-71
2022/11/03 00:40:56;;;;;;;;;;;10.80;99.90;;;;;;5105105;27;19924;-71
2022/11/03 00:43:22;;;;;;;;;;;10.90;99.90;;;;;;5051074;27;215650;-72
2022/11/03 00:45:48;;;;;;;;;;;10.80;99.90;;;;;;5105250;27;19927;-73
2022/11/03 00:48:30;;;;;;;;;;;10.90;99.90;;;;;;5043633;27;85615;-72
2022/11/03 00:50:58;;;;;;;;;;;10.90;99.90;;;;;;5122222;27;20404;-72
2022/11/03 00:53:24;;;;;;;;;;;10.80;99.90;;;;;;5043923;27;210415;-72
2022/11/03 00:55:50;;;;;;;;;;;10.80;99.90;;;;;;5099993;27;20381;-72
2022/11/03 00:58:16;;;;;;;;;;;10.80;99.90;;;;;;5029765;28;209272;-72
2022/11/03 01:00:42;;;;;;;;;;;10.80;99.90;;;;;;5101103;28;19920;-71
2022/11/03 01:03:08;;;;;;;;;;;10.80;99.90;;;;;;5039647;27;196021;-71
2022/11/03 01:08:23;;;;;;;;;;;10.70;99.90;;;;;;5049610;27;159775;-71
2022/11/03 01:13:38;;;;;;;;;;;10.80;99.90;;;;;;5004127;28;162625;-71
2022/11/03 01:16:04;;;;;;;;;;;10.70;99.90;;;;;;5043315;28;19992;-72
2022/11/03 01:18:30;;;;;;;;;;;10.70;99.90;;;;;;5005934;28;126647;-72
2022/11/03 01:20:56;;;;;;;;;;;10.70;99.90;;;;;;5062179;28;19971;-71
2022/11/03 01:23:22;;;;;;;;;;;10.80;99.90;;;;;;5009930;28;135834;-72
2022/11/03 01:25:49;;;;;;;;;;;10.70;99.90;;;;;;5025348;28;19928;-71
2022/11/03 01:28:15;;;;;;;;;;;10.70;99.90;;;;;;4986285;28;209605;-72
2022/11/03 01:30:41;;;;;;;;;;;10.70;99.90;;;;;;5043354;28;20494;-72
2022/11/03 01:33:07;;;;;;;;;;;10.70;99.90;;;;;;5006338;28;178670;-71
2022/11/03 01:35:33;;;;;;;;;;;10.70;99.90;;;;;;5041202;28;19927;-71
2022/11/03 01:37:59;;;;;;;;;;;10.70;99.90;;;;;;4989271;28;121711;-71
2022/11/03 01:40:25;;;;;;;;;;;10.70;99.90;;;;;;5054275;28;20415;-72
2022/11/03 01:42:51;;;;;;;;;;;10.70;99.90;;;;;;5017021;28;107782;-71
2022/11/03 01:45:17;;;;;;;;;;;10.60;99.90;;;;;;5058372;28;19920;-71
2022/11/03 01:47:43;;;;;;;;;;;10.60;99.90;;;;;;5016649;28;192340;-72
2022/11/03 01:50:11;;;;;;;;;;;10.60;99.90;;;;;;5069403;28;19920;-72
2022/11/03 01:52:43;;;;;;;;;;;10.60;99.90;;;;;;5056087;27;211964;-72
2022/11/03 01:55:15;;;;;;;;;;;10.50;99.90;;;;;;5112788;27;19931;-72
2022/11/03 01:57:46;;;;;;;;;;;10.50;99.90;;;;;;5054344;28;206555;-71
2022/11/03 02:00:12;;;;;;;;;;;10.40;99.90;;;;;;5103707;28;19928;-72
2022/11/03 02:02:39;;;;;;;;;;;10.40;99.90;;;;;;5057742;27;209697;-72
2022/11/03 02:05:05;;;;;;;;;;;10.40;99.90;;;;;;5116509;27;19951;-72
2022/11/03 02:07:37;;;;;;;;;;;10.40;99.90;;;;;;5054058;27;207193;-71
2022/11/03 02:10:05;;;;;;;;;;;10.30;99.90;;;;;;5104783;27;20209;-72
2022/11/03 02:12:32;;;;;;;;;;;10.30;99.90;;;;;;5053416;28;208365;-72
2022/11/03 02:15:00;;;;;;;;;;;10.40;99.90;;;;;;5109541;28;19924;-72
2022/11/03 02:17:27;;;;;;;;;;;10.30;99.90;;;;;;5060565;27;218932;-71
2022/11/03 02:20:14;;;;;;;;;;;10.30;99.90;;;;;;5103225;28;19927;-72
2022/11/03 02:22:42;;;;;;;;;;;10.40;99.90;;;;;;5049767;27;218875;-72
2022/11/03 02:25:27;;;;;;;;;;;10.40;99.90;;;;;;5104455;28;19924;-72
2022/11/03 02:27:53;;;;;;;;;;;10.40;99.90;;;;;;5064030;27;207775;-72
2022/11/03 02:30:19;;;;;;;;;;;10.40;99.90;;;;;;5114254;27;19923;-72
2022/11/03 02:33:05;;;;;;;;;;;10.40;99.90;;;;;;5057877;28;208160;-71
2022/11/03 02:35:42;;;;;;;;;;;10.40;99.90;;;;;;5060061;28;19920;-70
2022/11/03 02:38:10;;;;;;;;;;;10.40;99.90;;;;;;5017449;28;186663;-70
2022/11/03 02:40:40;;;;;;;;;;;10.50;99.90;;;;;;5062411;28;20281;-71
2022/11/03 02:43:07;;;;;;;;;;;10.50;99.90;;;;;;5013188;28;166718;-73
2022/11/03 02:45:33;;;;;;;;;;;10.50;99.90;;;;;;5059403;28;19921;-71
2022/11/03 02:48:00;;;;;;;;;;;10.50;99.90;;;;;;5011183;28;184306;-71
2022/11/03 02:50:27;;;;;;;;;;;10.50;99.90;;;;;;5053606;28;20613;-72
2022/11/03 02:52:54;;;;;;;;;;;10.50;99.90;;;;;;4998442;28;65793;-71
2022/11/03 02:55:28;;;;;;;;;;;10.60;99.90;;;;;;5037835;28;20003;-71
2022/11/03 02:58:06;;;;;;;;;;;10.50;99.90;;;;;;5006556;28;112930;-71
2022/11/03 03:00:38;;;;;;;;;;;10.50;99.90;;;;;;5062337;28;19976;-71
2022/11/03 03:03:10;;;;;;;;;;;10.60;99.90;;;;;;4986926;28;149219;-70
2022/11/03 03:05:37;;;;;;;;;;;10.60;99.90;;;;;;5053824;28;19924;-71
2022/11/03 03:08:06;;;;;;;;;;;10.60;99.90;;;;;;4992902;28;207636;-70
2022/11/03 03:10:39;;;;;;;;;;;10.60;99.90;;;;;;5054825;28;19925;-70
2022/11/03 03:13:06;;;;;;;;;;;10.60;99.90;;;;;;5033223;28;215385;-70
2022/11/03 03:15:35;;;;;;;;;;;10.60;99.90;;;;;;5093765;28;20327;-70
2022/11/03 03:18:09;;;;;;;;;;;10.60;99.90;;;;;;5051231;27;176871;-70
2022/11/03 03:20:41;;;;;;;;;;;10.60;99.90;;;;;;5105898;28;20285;-71
2022/11/03 03:23:21;;;;;;;;;;;10.60;99.90;;;;;;5053974;27;207939;-70
2022/11/03 03:25:49;;;;;;;;;;;10.60;99.90;;;;;;5107795;27;19923;-70
2022/11/03 03:28:26;;;;;;;;;;;10.60;99.90;;;;;;5064835;27;212670;-70
2022/11/03 03:30:54;;;;;;;;;;;10.60;99.90;;;;;;5107081;27;19954;-70
2022/11/03 03:33:20;;;;;;;;;;;10.60;99.90;;;;;;5051145;27;209259;-71
2022/11/03 03:35:48;;;;;;;;;;;10.60;99.90;;;;;;5108689;27;20383;-71
2022/11/03 03:38:16;;;;;;;;;;;10.60;99.90;;;;;;5049613;27;197322;-71
2022/11/03 03:40:44;;;;;;;;;;;10.60;99.90;;;;;;5124298;27;19931;-71
2022/11/03 03:43:12;;;;;;;;;;;10.60;99.90;;;;;;5069902;27;209263;-71
2022/11/03 03:45:37;;;;;;;;;;;10.60;99.90;;;;;;5125186;27;19923;-71
2022/11/03 03:48:04;;;;;;;;;;;10.60;99.90;;;;;;5076576;27;218419;-70
2022/11/03 03:50:31;;;;;;;;;;;10.60;99.90;;;;;;5121102;27;19935;-70
2022/11/03 03:53:01;;;;;;;;;;;10.60;99.90;;;;;;5066582;27;213629;-71
2022/11/03 03:55:35;;;;;;;;;;;10.50;99.90;;;;;;5110420;27;20358;-70
2022/11/03 03:58:02;;;;;;;;;;;10.50;99.90;;;;;;5042862;28;190488;-70
2022/11/03 04:00:27;;;;;;;;;;;10.50;99.90;;;;;;5108145;28;19924;-70
2022/11/03 04:02:55;;;;;;;;;;;10.50;99.90;;;;;;5060613;27;210054;-71
2022/11/03 04:05:21;;;;;;;;;;;10.50;99.90;;;;;;5112112;27;20502;-71
2022/11/03 04:07:47;;;;;;;;;;;10.50;99.90;;;;;;5064361;27;209096;-71
2022/11/03 04:10:14;;;;;;;;;;;10.50;99.90;;;;;;5109994;27;19919;-71
2022/11/03 04:23:59;;;;;;;;;;;10.50;99.90;;;;;;4998286;28;205834;-71
2022/11/03 04:26:26;;;;;;;;;;;10.50;99.90;;;;;;5043443;28;19932;-71
2022/11/03 04:28:52;;;;;;;;;;;10.50;99.90;;;;;;4991498;28;212101;-71
2022/11/03 04:31:19;;;;;;;;;;;10.50;99.90;;;;;;5065240;28;19935;-71
2022/11/03 04:33:45;;;;;;;;;;;10.50;99.90;;;;;;4985397;28;209848;-70
2022/11/03 04:36:18;;;;;;;;;;;10.50;99.90;;;;;;5071307;28;20404;-70
2022/11/03 04:38:44;;;;;;;;;;;10.50;99.90;;;;;;5002684;28;209263;-70
2022/11/03 04:41:17;;;;;;;;;;;10.50;99.90;;;;;;5063593;28;19920;-70
2022/11/03 04:43:44;;;;;;;;;;;10.50;99.90;;;;;;4985300;28;207766;-71
2022/11/03 04:46:11;;;;;;;;;;;10.50;99.90;;;;;;5062105;28;19928;-71
2022/11/03 04:48:37;;;;;;;;;;;10.50;99.90;;;;;;4975845;28;182292;-71
2022/11/03 04:51:12;;;;;;;;;;;10.50;99.90;;;;;;5051632;28;19931;-71
2022/11/03 04:53:38;;;;;;;;;;;10.50;99.90;;;;;;5061711;27;212811;-71
2022/11/03 04:56:11;;;;;;;;;;;10.50;99.90;;;;;;5103703;27;20598;-71
2022/11/03 04:58:37;;;;;;;;;;;10.50;99.90;;;;;;5010714;28;205737;-71
2022/11/03 05:01:03;;;;;;;;;;;10.50;99.90;;;;;;5080117;28;20640;-70
2022/11/03 05:03:31;;;;;;;;;;;10.50;99.90;;;;;;5002037;28;206648;-71
2022/11/03 05:06:00;;;;;;;;;;;10.50;99.90;;;;;;5081956;28;19927;-70
2022/11/03 05:08:25;;;;;;;;;;;10.50;99.90;;;;;;5053782;27;218843;-71
2022/11/03 05:10:51;;;;;;;;;;;10.60;99.90;;;;;;5076937;28;19967;-70
2022/11/03 05:13:21;;;;;;;;;;;10.60;99.90;;;;;;5016226;28;192901;-70
2022/11/03 05:15:48;;;;;;;;;;;10.60;99.90;;;;;;5088972;28;19930;-70
2022/11/03 05:18:20;;;;;;;;;;;10.60;99.90;;;;;;5028120;28;209373;-70
2022/11/03 05:21:06;;;;;;;;;;;10.60;99.90;;;;;;5092511;27;20337;-70
2022/11/03 05:23:37;;;;;;;;;;;10.60;99.90;;;;;;5035528;28;138397;-70
2022/11/03 05:26:04;;;;;;;;;;;10.60;99.90;;;;;;5079591;28;19923;-70
2022/11/03 05:28:41;;;;;;;;;;;10.60;99.90;;;;;;5035851;27;206737;-70
2022/11/03 05:31:30;;;;;;;;;;;10.60;99.90;;;;;;5115408;27;20315;-70
2022/11/03 05:33:57;;;;;;;;;;;10.60;99.90;;;;;;5047104;27;208711;-70
2022/11/03 05:36:24;;;;;;;;;;;10.70;99.90;;;;;;5100258;28;19934;-71
2022/11/03 05:38:52;;;;;;;;;;;10.70;99.90;;;;;;5050272;27;202514;-71
2022/11/03 05:41:20;;;;;;;;;;;10.70;99.90;;;;;;5112239;27;19928;-71
2022/11/03 05:43:54;;;;;;;;;;;10.60;99.90;;;;;;5044173;27;208085;-71
2022/11/03 05:46:20;;;;;;;;;;;10.70;99.90;;;;;;5103865;27;19931;-71
2022/11/03 05:48:48;;;;;;;;;;;10.70;99.90;;;;;;5054504;27;208473;-70
2022/11/03 05:51:16;;;;;;;;;;;10.70;99.90;;;;;;5106090;28;19926;-71
2022/11/03 05:53:43;;;;;;;;;;;10.70;99.90;;;;;;5048562;28;203293;-71
2022/11/03 05:56:14;;;;;;;;;;;10.70;99.90;;;;;;5101432;28;20380;-71
2022/11/03 05:58:41;;;;;;;;;;;10.70;99.90;;;;;;5059549;27;231203;-71
2022/11/03 06:01:21;;;;;;;;;;;10.70;99.90;;;;;;5083316;28;20575;-71
2022/11/03 06:03:47;;;;;;;;;;;10.70;99.90;;;;;;5027894;28;221509;-71
2022/11/03 06:06:33;;;;;;;;;;;10.60;99.90;;;;;;5084467;28;19928;-71
2022/11/03 06:09:14;;;;;;;;;;;10.60;99.90;;;;;;5056341;27;69740;-71
2022/11/03 06:11:42;;;;;;;;;;;10.60;99.90;;;;;;5060594;27;211367;-70
2022/11/03 06:14:11;;;;;;;;;;;10.60;99.90;;;;;;5062124;28;19927;-71
2022/11/03 06:16:47;;;;;;;;;;;10.50;99.90;;;;;;5087267;28;226289;-71
2022/11/03 06:19:15;;;;;;;;;;;10.50;99.90;;;;;;5006562;28;19930;-71
2022/11/03 06:21:42;;;;;;;;;;;10.50;99.90;;;;;;5069107;28;226110;-70
2022/11/03 06:24:09;;;;;;;;;;;10.50;99.90;;;;;;5073220;28;19924;-71
2022/11/03 06:26:35;;;;;;;;;;;10.50;99.90;;;;;;5072918;28;207190;-69
2022/11/03 06:29:01;;;;;;;;;;;10.50;99.90;;;;;;5083351;27;96219;-71
2022/11/03 06:31:29;;;;;;;;;;;10.50;99.90;;;;;;5108149;27;20454;-72
2022/11/03 06:33:56;;;;;;;;;;;10.40;99.90;;;;;;5009164;27;206826;-73
2022/11/03 06:36:24;;;;;;;;;;;10.50;99.90;;;;;;5080943;28;19930;-71
2022/11/03 06:38:55;;;;;;;;;;;10.50;99.90;;;;;;5011435;28;153686;-72
2022/11/03 06:41:25;;;;;;;;;;;10.50;99.90;;;;;;5087591;28;19923;-71
2022/11/03 06:43:51;;;;;;;;;;;10.40;99.90;;;;;;5019829;27;205296;-71
2022/11/03 06:46:19;;;;;;;;;;;10.50;99.90;;;;;;5078580;28;19920;-71
2022/11/03 06:48:45;;;;;;;;;;;10.40;99.90;;;;;;5047692;27;207014;-71
2022/11/03 06:51:21;;;;;;;;;;;10.50;99.90;;;;;;5095263;27;19928;-71
2022/11/03 06:53:49;;;;;;;;;;;10.50;99.90;;;;;;5042559;27;176545;-71
2022/11/03 06:56:17;;;;;;;;;;;10.50;99.90;;;;;;5083377;27;19934;-71
2022/11/03 06:58:44;;;;;;;;;;;10.50;99.90;;;;;;5055555;27;207225;-71
2022/11/03 07:01:15;;;;;;;;;;;10.50;99.90;;;;;;5100037;27;19951;-71
2022/11/03 07:03:41;;;;;;;;;;;10.60;99.90;;;;;;5045815;28;36515;-70
2022/11/03 07:06:12;;;;;;;;;;;10.60;99.90;;;;;;5098390;27;19924;-72
2022/11/03 07:08:38;;;;;;;;;;;10.60;99.90;;;;;;5050554;27;209450;-70
2022/11/03 07:11:24;;;;;;;;;;;10.60;99.90;;;;;;5096465;27;20445;-70
2022/11/03 07:13:51;;;;;;;;;;;10.60;99.90;;;;;;5063936;27;223103;-69
2022/11/03 07:16:40;;;;;;;;;;;10.70;99.90;;;;;;5102363;28;19920;-69
2022/11/03 07:19:23;;;;;;;;;;;10.70;99.90;;;;;;5011898;27;205541;-69
2022/11/03 07:21:57;;;;;;;;;;;10.70;99.90;;;;;;5053131;27;203159;-70
2022/11/03 07:24:23;;;;;;;;;;;10.70;99.90;;;;;;5079663;28;19935;-69
2022/11/03 07:26:53;;;;;;;;;;;10.70;99.90;;;;;;5053778;27;210136;-69
2022/11/03 07:29:21;;;;;;;;;;;10.70;99.90;;;;;;5099589;27;19930;-70
2022/11/03 07:31:48;;;;;;;;;;;10.80;99.90;;;;;;5040108;28;217595;-69
2022/11/03 07:34:17;;;;;;;;;;;10.90;99.90;;;;;;5076330;28;20529;-70
2022/11/03 07:36:44;;;;;;;;;;;10.90;99.90;;;;;;5056161;27;223385;-70
2022/11/03 07:39:14;;;;;;;;;;;11.00;99.90;;;;;;5088113;27;20044;-70
2022/11/03 07:41:39;;;;;;;;;;;11.00;99.90;;;;;;5074320;27;207693;-69
2022/11/03 07:44:09;;;;;;;;;;;11.10;99.90;;;;;;5055920;28;19923;-70
2022/11/03 07:46:35;;;;;;;;;;;11.10;99.90;;;;;;5086580;27;207612;-70
2022/11/03 07:49:02;;;;;;;;;;;11.20;99.90;;;;;;5049468;27;130457;-70
2022/11/03 07:51:30;;;;;;;;;;;11.20;99.90;;;;;;5098454;28;20564;-69
2022/11/03 07:54:13;;;;;;;;;;;11.30;99.90;;;;;;5040260;27;210841;-70
2022/11/03 07:56:47;;;;;;;;;;;11.30;99.90;;;;;;5077393;27;205744;-69
2022/11/03 07:59:16;;;;;;;;;;;11.40;99.90;;;;;;5082713;27;19995;-70
2022/11/03 08:01:46;;;;;;;;;;;11.50;99.90;;;;;;5040785;28;218441;-69
2022/11/03 08:04:16;;;;;;;;;;;11.60;99.90;;;;;;5053149;28;19924;-70
2022/11/03 08:06:43;;;;;;;;;;;11.70;99.90;;;;;;5044627;28;203131;-69
2022/11/03 08:09:09;;;;;;;;;;;11.80;99.90;;;;;;5036784;27;19930;-70
2022/11/03 08:11:34;;;;;;;;;;;11.80;99.90;;;;;;5053927;28;205751;-70
2022/11/03 08:14:00;;;;;;;;;;;11.90;99.90;;;;;;5055979;27;117260;-71
2022/11/03 08:16:26;;;;;;;;;;;12.00;99.90;;;;;;5096019;27;19928;-71
2022/11/03 08:18:53;;;;;;;;;;;12.00;99.90;;;;;;5053527;27;208533;-70
2022/11/03 08:21:18;;;;;;;;;;;12.10;99.90;;;;;;5104037;28;20000;-69
2022/11/03 08:23:44;;;;;;;;;;;12.10;99.90;;;;;;5027390;27;196837;-70
2022/11/03 08:26:10;;;;;;;;;;;12.20;99.90;;;;;;5099014;27;20009;-70
2022/11/03 08:28:36;;;;;;;;;;;12.20;99.90;;;;;;5037747;27;208511;-71
2022/11/03 08:31:05;;;;;;;;;;;12.30;99.90;;;;;;5087825;28;20322;-70
2022/11/03 08:33:31;;;;;;;;;;;12.30;99.90;;;;;;5062388;27;206991;-69
2022/11/03 08:35:58;;;;;;;;;;;12.30;99.90;;;;;;5097035;27;19931;-71
2022/11/03 08:38:24;;;;;;;;;;;12.40;99.90;;;;;;5054391;27;199417;-70
2022/11/03 08:40:50;;;;;;;;;;;12.40;99.90;;;;;;5095033;28;19924;-69
2022/11/03 08:43:16;;;;;;;;;;;12.40;99.90;;;;;;5027392;27;206164;-70
2022/11/03 08:45:42;;;;;;;;;;;12.40;99.90;;;;;;5096739;28;20522;-70
2022/11/03 08:48:08;;;;;;;;;;;12.40;99.90;;;;;;5047286;27;209494;-70
2022/11/03 08:50:34;;;;;;;;;;;12.50;99.90;;;;;;5076485;28;19931;-71
2022/11/03 08:53:00;;;;;;;;;;;12.50;99.90;;;;;;5054376;27;160683;-71
2022/11/03 08:55:26;;;;;;;;;;;12.50;99.90;;;;;;5096737;27;19934;-71
2022/11/03 08:57:52;;;;;;;;;;;12.50;99.90;;;;;;5037059;28;180851;-70
2022/11/03 09:00:17;;;;;;;;;;;12.60;99.90;;;;;;5085723;27;19930;-70
2022/11/03 09:02:44;;;;;;;;;;;12.60;99.90;;;;;;5033712;27;213976;-70
2022/11/03 09:05:11;;;;;;;;;;;12.70;99.90;;;;;;5102140;27;20365;-71
2022/11/03 09:07:38;;;;;;;;;;;12.70;99.90;;;;;;5053581;28;207613;-70
2022/11/03 09:10:05;;;;;;;;;;;12.80;99.90;;;;;;5103238;27;20196;-71
2022/11/03 09:12:31;;;;;;;;;;;12.80;99.90;;;;;;5054134;27;210714;-70
2022/11/03 09:14:57;;;;;;;;;;;12.80;99.90;;;;;;5109516;27;19934;-71
2022/11/03 09:17:23;;;;;;;;;;;12.90;99.90;;;;;;5049156;27;221630;-71
2022/11/03 09:19:49;;;;;;;;;;;13.00;99.90;;;;;;5091755;28;19924;-70
2022/11/03 09:22:15;;;;;;;;;;;13.00;99.90;;;;;;5046925;27;213435;-70
2022/11/03 09:24:41;;;;;;;;;;;13.10;99.90;;;;;;5103234;28;19967;-70
2022/11/03 09:27:06;;;;;;;;;;;13.10;99.90;;;;;;5046478;28;229538;-71
2022/11/03 09:29:32;;;;;;;;;;;13.10;99.90;;;;;;5099232;27;20375;-71
2022/11/03 09:31:58;;;;;;;;;;;13.20;99.90;;;;;;5054908;27;222879;-71
2022/11/03 09:34:24;;;;;;;;;;;13.30;99.90;;;;;;5114905;27;20050;-72
2022/11/03 09:36:50;;;;;;;;;;;13.40;99.90;;;;;;5046896;28;209282;-71
2022/11/03 09:39:17;;;;;;;;;;;13.40;99.90;;;;;;5096920;28;20205;-71
2022/11/03 09:41:42;;;;;;;;;;;13.40;99.90;;;;;;5062365;28;207947;-70
2022/11/03 09:44:09;;;;;;;;;;;13.50;99.90;;;;;;5102022;27;19935;-70
2022/11/03 09:46:36;;;;;;;;;;;13.60;99.90;;;;;;5087206;28;208496;-70
2022/11/03 09:49:03;;;;;;;;;;;13.60;99.90;;;;;;5064215;27;146888;-71
2022/11/03 09:51:29;;;;;;;;;;;13.70;99.90;;;;;;5107031;27;19924;-71
2022/11/03 09:53:56;;;;;;;;;;;13.80;99.90;;;;;;5069544;27;209215;-71
2022/11/03 09:56:23;;;;;;;;;;;13.90;99.90;;;;;;5097341;28;19935;-70
2022/11/03 09:58:49;;;;;;;;;;;14.00;99.90;;;;;;5068699;27;206019;-72
2022/11/03 10:01:15;;;;;;;;;;;14.00;99.90;;;;;;5091726;28;19920;-69
2022/11/03 10:03:42;;;;;;;;;;;14.10;99.90;;;;;;5051091;27;207894;-70
2022/11/03 10:06:08;;;;;;;;;;;14.20;99.90;;;;;;5098687;28;19931;-70
2022/11/03 10:08:35;;;;;;;;;;;14.20;99.90;;;;;;5062107;27;210869;-72
2022/11/03 10:11:01;;;;;;;;;;;14.30;99.90;;;;;;5092768;28;19924;-71
2022/11/03 10:13:27;;;;;;;;;;;14.30;99.90;;;;;;5057477;27;214456;-70
2022/11/03 10:15:53;;;;;;;;;;;14.30;99.90;;;;;;5101629;28;20444;-72
2022/11/03 10:18:20;;;;;;;;;;;14.30;99.90;;;;;;5056318;28;209812;-71
2022/11/03 10:20:46;;;;;;;;;;;14.30;99.90;;;;;;5099562;27;19935;-71
2022/11/03 10:23:11;;;;;;;;;;;14.40;99.90;;;;;;5045884;28;207466;-70
2022/11/03 10:25:38;;;;;;;;;;;14.40;99.90;;;;;;5107660;28;19923;-70
2022/11/03 10:28:17;;;;;;;;;;;14.50;99.90;;;;;;5042597;27;214010;-69
2022/11/03 10:30:49;;;;;;;;;;;14.60;99.90;;;;;;5072174;28;20116;-70
2022/11/03 10:33:25;;;;;;;;;;;14.70;99.90;;;;;;5042299;28;209487;-71
2022/11/03 10:35:51;;;;;;;;;;;14.90;99.90;;;;;;5110917;27;19928;-71
2022/11/03 10:38:27;;;;;;;;;;;15.00;99.90;;;;;;5036672;28;167801;-70
2022/11/03 10:40:54;;;;;;;;;;;15.20;99.90;;;;;;5097031;28;20427;-70
2022/11/03 10:43:20;;;;;;;;;;;15.30;99.90;;;;;;5057463;28;152780;-69
2022/11/03 10:45:46;;;;;;;;;;;15.40;99.90;;;;;;5100689;28;19934;-69
2022/11/03 10:48:11;;;;;;;;;;;15.40;99.90;;;;;;5053655;27;195966;-70
2022/11/03 10:50:38;;;;;;;;;;;15.50;99.90;;;;;;5100737;28;19924;-72
2022/11/03 10:53:04;;;;;;;;;;;15.50;99.90;;;;;;5044221;28;212855;-70
2022/11/03 10:55:30;;;;;;;;;;;15.50;99.90;;;;;;5099821;28;20381;-71
2022/11/03 10:57:57;;;;;;;;;;;15.50;99.90;;;;;;5045943;28;209018;-71
2022/11/03 11:00:23;;;;;;;;;;;15.60;99.90;;;;;;5096056;28;20315;-72
2022/11/03 11:02:50;;;;;;;;;;;15.70;99.90;;;;;;5026280;27;191357;-71
2022/11/03 11:05:17;;;;;;;;;;;15.80;99.90;;;;;;5100073;28;19928;-72
2022/11/03 11:07:43;;;;;;;;;;;15.80;99.90;;;;;;5059840;27;218695;-73
2022/11/03 11:10:14;;;;;;;;;;;15.80;99.90;;;;;;5106493;28;19931;-70
2022/11/03 11:13:00;;;;;;;;;;;15.80;99.90;;;;;;5049892;27;215179;-70
2022/11/03 11:15:35;;;;;;;;;;;15.80;99.90;;;;;;5107623;28;19927;-70
2022/11/03 11:18:01;;;;;;;;;;;15.90;99.90;;;;;;5057977;27;225864;-70
2022/11/03 11:20:29;;;;;;;;;;;16.00;99.90;;;;;;5103453;28;19924;-71
2022/11/03 11:23:15;;;;;;;;;;;16.00;99.90;;;;;;5057553;27;206482;-71
2022/11/03 11:26:00;;;;;;;;;;;16.10;99.90;;;;;;5103987;28;20385;-72
2022/11/03 11:28:26;;;;;;;;;;;16.10;99.90;;;;;;5059405;27;206714;-71
2022/11/03 11:30:51;;;;;;;;;;;16.00;99.90;;;;;;5096529;27;19924;-72
2022/11/03 11:33:21;;;;;;;;;;;16.00;99.90;;;;;;5051608;27;210453;-71
2022/11/03 11:35:47;;;;;;;;;;;16.00;99.90;;;;;;5104944;28;19935;-71
2022/11/03 11:38:33;;;;;;;;;;;16.00;99.90;;;;;;5058002;27;207449;-71
2022/11/03 11:40:59;;;;;;;;;;;16.00;99.90;;;;;;5098509;27;19940;-71
2022/11/03 11:43:26;;;;;;;;;;;16.00;99.90;;;;;;5049128;27;211504;-71
2022/11/03 11:46:11;;;;;;;;;;;16.00;99.90;;;;;;5100979;28;20324;-70
2022/11/03 11:48:36;;;;;;;;;;;16.00;99.90;;;;;;5060395;27;209194;-70
2022/11/03 11:51:03;;;;;;;;;;;16.00;99.90;;;;;;5102461;27;20372;-70
2022/11/03 11:53:38;;;;;;;;;;;16.00;99.90;;;;;;5065887;27;214180;-70
2022/11/03 11:56:04;;;;;;;;;;;16.00;99.90;;;;;;5103351;28;21278;-70
2022/11/03 11:58:41;;;;;;;;;;;16.00;99.90;;;;;;5056726;27;210276;-70
2022/11/03 12:01:26;;;;;;;;;;;16.00;99.90;;;;;;5105957;27;19934;-70
2022/11/03 12:03:53;;;;;;;;;;;15.90;99.90;;;;;;5056992;27;208064;-70
2022/11/03 12:06:36;;;;;;;;;;;15.90;99.90;;;;;;5101451;28;19928;-70
2022/11/03 12:09:05;;;;;;;;;;;15.80;99.90;;;;;;5020958;27;206203;-70
2022/11/03 12:11:42;;;;;;;;;;;15.80;99.90;;;;;;5102353;28;19924;-70
2022/11/03 12:14:25;;;;;;;;;;;15.80;99.90;;;;;;5042661;28;208686;-70
2022/11/03 12:16:51;;;;;;;;;;;15.80;99.90;;;;;;5052855;28;207557;-70
2022/11/03 12:19:37;;;;;;;;;;;15.70;99.90;;;;;;5090240;27;19927;-70
2022/11/03 12:22:21;;;;;;;;;;;15.80;99.90;;;;;;5055305;27;206942;-70
2022/11/03 12:24:48;;;;;;;;;;;15.80;99.90;;;;;;5109451;27;19920;-71
2022/11/03 12:27:17;;;;;;;;;;;15.80;99.90;;;;;;5048173;28;207812;-71
2022/11/03 12:29:43;;;;;;;;;;;15.70;99.90;;;;;;5075154;27;19920;-70
2022/11/03 12:32:08;;;;;;;;;;;15.70;99.90;;;;;;5047562;27;214187;-70
2022/11/03 12:34:34;;;;;;;;;;;15.70;99.90;;;;;;5096354;27;20369;-70
2022/11/03 12:37:00;;;;;;;;;;;15.70;99.90;;;;;;5075468;27;214156;-70
2022/11/03 12:39:26;;;;;;;;;;;15.80;99.90;;;;;;5108210;27;19923;-70
2022/11/03 12:41:52;;;;;;;;;;;15.80;99.90;;;;;;5060973;27;209914;-70
2022/11/03 12:44:18;;;;;;;;;;;15.90;99.90;;;;;;5110280;27;20385;-70
2022/11/03 12:46:44;;;;;;;;;;;17.00;99.90;;;;;;5065065;27;207252;-68
2022/11/03 12:49:10;;;;;;;;;;;18.50;99.90;;;;;;5094652;27;19927;-70
2022/11/03 12:51:36;;;;;;;;;;;18.60;99.90;;;;;;5088893;28;209760;-69
2022/11/03 12:54:02;;;;;;;;;;;18.70;99.90;;;;;;5083248;27;209020;-69
2022/11/03 12:56:28;;;;;;;;;;;18.70;99.20;;;;;;5105754;28;19973;-70
2022/11/03 12:58:54;;;;;;;;;;;18.50;99.10;;;;;;5029577;27;207366;-70
2022/11/03 13:01:21;;;;;;;;;;;18.80;99.50;;;;;;5103413;27;19923;-71
2022/11/03 13:03:46;;;;;;;;;;;18.90;99.70;;;;;;5059596;27;210009;-71
2022/11/03 13:06:13;;;;;;;;;;;18.50;99.00;;;;;;5119116;27;20367;-71
2022/11/03 13:08:40;;;;;;;;;;;18.10;99.00;;;;;;5067833;27;208823;-71
2022/11/03 13:12:29;;;;;;;;;;;17.80;99.30;;;;;;5118550;27;19923;-71
2022/11/03 13:13:52;;;;;;;;;;;17.30;99.50;;;;;;5057031;27;162935;-69
2022/11/03 13:16:18;;;;;;;;;;;17.00;99.90;;;;;;5101067;27;19935;-69
2022/11/03 13:18:44;;;;;;;;;;;16.90;99.90;;;;;;5054318;27;207648;-70
2022/11/03 13:21:10;;;;;;;;;;;16.80;99.90;;;;;;5121101;27;19930;-70
2022/11/03 13:23:35;;;;;;;;;;;16.70;99.90;;;;;;5053676;27;209909;-70
2022/11/03 13:26:01;;;;;;;;;;;16.50;99.90;;;;;;5087675;28;19926;-70
2022/11/03 13:28:27;;;;;;;;;;;16.40;99.90;;;;;;5045031;27;206658;-69
2022/11/03 13:30:53;;;;;;;;;;;16.40;99.90;;;;;;5095103;27;19993;-70
2022/11/03 13:33:19;;;;;;;;;;;16.30;99.90;;;;;;5041260;27;205806;-69
2022/11/03 13:35:45;;;;;;;;;;;16.30;99.90;;;;;;5103855;27;19924;-69
2022/11/03 13:38:11;;;;;;;;;;;16.20;99.90;;;;;;5049751;28;101291;-70
2022/11/03 13:40:37;;;;;;;;;;;16.10;99.90;;;;;;5119646;27;19927;-70
2022/11/03 13:43:03;;;;;;;;;;;16.10;99.90;;;;;;5071392;27;211956;-71
2022/11/03 13:45:29;;;;;;;;;;;16.00;99.90;;;;;;5103572;27;19926;-71
2022/11/03 13:47:56;;;;;;;;;;;16.10;99.90;;;;;;5075196;27;206975;-71
2022/11/03 13:50:22;;;;;;;;;;;16.00;99.90;;;;;;5101019;27;19923;-70
2022/11/03 13:52:48;;;;;;;;;;;16.00;99.90;;;;;;5057934;27;207674;-70
2022/11/03 13:55:15;;;;;;;;;;;15.90;99.90;;;;;;5111209;27;19927;-71
2022/11/03 13:57:41;;;;;;;;;;;15.80;99.90;;;;;;5067003;27;209749;-70
2022/11/03 14:00:07;;;;;;;;;;;15.80;99.90;;;;;;5097488;27;19946;-70
2022/11/03 14:02:33;;;;;;;;;;;15.70;99.90;;;;;;5042405;27;122437;-70
2022/11/03 14:04:59;;;;;;;;;;;15.60;99.90;;;;;;5113211;27;20323;-70
2022/11/03 14:07:25;;;;;;;;;;;15.60;99.90;;;;;;5069333;27;207406;-71
2022/11/03 14:09:51;;;;;;;;;;;15.60;99.90;;;;;;5112802;27;19920;-70
2022/11/03 14:12:29;;;;;;;;;;;15.50;99.90;;;;;;5063092;27;212332;-71
2022/11/03 14:14:56;;;;;;;;;;;15.50;99.90;;;;;;5087528;27;20312;-71
2022/11/03 14:17:23;;;;;;;;;;;15.50;99.90;;;;;;5061144;27;223781;-71
2022/11/03 14:19:49;;;;;;;;;;;15.50;99.90;;;;;;5111478;27;19928;-71
2022/11/03 14:22:15;;;;;;;;;;;15.50;99.90;;;;;;5066516;27;207317;-71
2022/11/03 14:24:41;;;;;;;;;;;15.40;99.90;;;;;;5093959;28;19927;-72
2022/11/03 14:27:07;;;;;;;;;;;15.40;99.90;;;;;;5060611;27;215938;-71
2022/11/03 14:29:33;;;;;;;;;;;15.40;99.90;;;;;;5102729;27;19928;-71
2022/11/03 14:32:00;;;;;;;;;;;15.30;99.90;;;;;;5057554;27;207248;-71
2022/11/03 14:34:26;;;;;;;;;;;15.30;99.90;;;;;;5092965;27;20411;-71
2022/11/03 14:36:52;;;;;;;;;;;15.30;99.90;;;;;;5064238;27;209006;-72